ADDS METAR Data INFO
IDs: Format: Raw Decoded Include TAF

Data at: 0924 UTC 13 Dec 2017

KASE 130853Z AUTO 21008KT 10SM CLR M04/M12 A3030 RMK AO2 SLP219 T10391117 56010
KASE 130753Z AUTO 19005KT 10SM CLR M06/M12 A3031 RMK AO2 SLP234 T10611122
KASE 130653Z AUTO 20007KT 10SM CLR M04/M12 A3033 RMK AO2 SLP238 T10441117 401111094
KASE 130553Z AUTO 20006KT 10SM CLR M06/M11 A3034 RMK AO2 SLP255 T10561111 10022 21056 56009
KASE 130453Z AUTO 18004KT 10SM CLR M04/M11 A3035 RMK AO2 SLP263 T10391111
KASE 130353Z AUTO 20007KT 10SM CLR M02/M11 A3036 RMK AO2 SLP271 T10221106
KASE 130253Z 21008KT 10SM CLR M02/M10 A3038 RMK AO2 SLP301 T10221100 58002
KASE 130153Z 21005KT 10SM CLR M01/M10 A3039 RMK AO2 SLP297 T10111100
KASE 130053Z 20008KT 10SM CLR 00/M09 A3039 RMK AO2 SLP297 T00001094
KASE 122353Z 21006KT 10SM CLR 01/M09 A3039 RMK AO2 SLP292 T00061094 10111 20006 55007
KASE 122253Z 31004KT 10SM CLR 08/M11 A3039 RMK AO2 SLP266 T00781106
KASE 122153Z 31005KT 10SM CLR 09/M11 A3040 RMK AO2 SLP263 T00941106
KASE 122053Z 31003KT 10SM CLR 11/M11 A3041 RMK AO2 SLP265 T01061111 57026
KASE 121953Z 30004KT 10SM CLR 09/M12 A3045 RMK AO2 SLP284 T00891117
KASE 121853Z 35008KT 10SM CLR 07/M11 A3048 RMK AO2 SLP290 T00721111
KASE 121753Z VRB03KT 10SM CLR 06/M11 A3051 RMK AO2 SLP302 T00561111 10056 21094 58016
KASE 121653Z 34003KT 10SM CLR 03/M11 A3054 RMK AO2 SLP325 T00281106
KASE 121553Z 19004KT 10SM CLR M02/M10 A3056 RMK AO2 SLP346 T10171100
KASE 121453Z 18005KT 10SM CLR M08/M13 A3056 RMK AO2 SLP371 T10831128 53002
KASE 121353Z 17003KT 10SM CLR M07/M13 A3056 RMK AO2 SLP361 T10721128
KASE 121253Z AUTO 19006KT 10SM CLR M08/M13 A3055 RMK AO2 SLP355 T10831128
KASE 121153Z AUTO 00000KT 10SM CLR M08/M12 A3056 RMK AO2 SLP358 T10781122 11017 21083 58002
KASE 121053Z AUTO 18007KT 10SM CLR M07/M12 A3056 RMK AO2 SLP327 T10671117
KASE 120953Z AUTO 17007KT 10SM CLR M06/M12 A3056 RMK AO2 SLP321 T10611117
KASE 120853Z AUTO 00000KT 10SM CLR M07/M12 A3056 RMK AO2 SLP320 T10671117 53008
KASE 120753Z AUTO 21004KT 10SM CLR M07/M12 A3054 RMK AO2 SLP321 T10671117
KASE 120653Z AUTO 20006KT 10SM CLR M04/M11 A3053 RMK AO2 SLP315 T10441111 401111122
KASE 120553Z AUTO 19006KT 10SM CLR M03/M11 A3053 RMK AO2 SLP316 T10281111 10017 21044 50003
KASE 120453Z AUTO 21006KT 10SM CLR M03/M11 A3054 RMK AO2 SLP328 T10281111
KASE 120353Z AUTO 20007KT 10SM CLR M03/M11 A3052 RMK AO2 SLP337 T10281111
KASE 120253Z 21005KT 10SM CLR M03/M11 A3052 RMK AO2 SLP364 T10281111 51011
KASE 120153Z 20007KT 10SM CLR M02/M12 A3052 RMK AO2 SLP358 T10171117
KASE 120053Z 19006KT 10SM CLR 00/M12 A3050 RMK AO2 SLP344 T00001117
KASE 112353Z 21003KT 10SM CLR M01/M13 A3048 RMK AO2 SLP342 T10061128 10111 21006 53005
KASE 112253Z 35004KT 10SM CLR 08/M17 A3048 RMK AO2 SLP305 T00831167
KASE 112153Z 35007KT 10SM CLR 11/M18 A3046 RMK AO2 SLP295 T01061183